createdAt,value
2023-03-24T00:02:07.923Z,2.58
2023-03-24T00:04:34.734Z,2.75
2023-03-24T00:07:04.499Z,2.12
2023-03-24T00:09:30.916Z,2.83
2023-03-24T00:11:57.337Z,2.45
2023-03-24T00:14:23.764Z,3.22
2023-03-24T00:16:50.422Z,1.98
2023-03-24T00:19:16.857Z,2.85
2023-03-24T00:21:43.402Z,2.83
2023-03-24T00:24:09.833Z,4.03
2023-03-24T00:26:37.752Z,2.53
2023-03-24T00:29:04.939Z,2.45
2023-03-24T00:31:31.388Z,2.92
2023-03-24T00:33:58.150Z,5.93
2023-03-24T00:36:24.820Z,2.60
2023-03-24T00:38:51.436Z,3.72
2023-03-24T00:41:21.552Z,2.83
2023-03-24T00:43:47.981Z,3.00
2023-03-24T00:46:28.752Z,2.92
2023-03-24T00:49:02.246Z,2.62
2023-03-24T00:51:28.878Z,4.32
2023-03-24T00:53:58.269Z,2.83
2023-03-24T00:56:25.013Z,3.05
2023-03-24T00:58:51.491Z,3.85
2023-03-24T01:01:18.015Z,4.10
2023-03-24T01:03:48.490Z,2.58
2023-03-24T01:06:14.995Z,3.22
2023-03-24T01:08:41.521Z,2.80
2023-03-24T01:11:07.979Z,4.40
2023-03-24T01:13:34.526Z,2.97
2023-03-24T01:16:00.951Z,3.22
2023-03-24T01:18:27.954Z,5.45
2023-03-24T01:20:54.376Z,3.15
2023-03-24T01:23:21.543Z,4.55
2023-03-24T01:25:48.415Z,3.10
2023-03-24T01:28:14.852Z,4.20
2023-03-24T01:30:41.354Z,4.40
2023-03-24T01:33:07.825Z,5.50
2023-03-24T01:35:34.291Z,3.80
2023-03-24T01:38:00.951Z,4.20
2023-03-24T01:40:27.404Z,3.03
2023-03-24T01:42:53.913Z,3.37
2023-03-24T01:45:20.592Z,3.83
2023-03-24T01:47:47.054Z,4.43
2023-03-24T01:50:14.754Z,4.37
2023-03-24T01:52:42.774Z,3.85
2023-03-24T01:55:09.230Z,3.92
2023-03-24T01:57:35.732Z,4.30
2023-03-24T02:00:05.035Z,3.22
2023-03-24T02:02:35.182Z,2.90
2023-03-24T02:05:01.825Z,4.80
2023-03-24T02:07:28.285Z,2.90
2023-03-24T02:09:54.718Z,5.22
2023-03-24T02:12:21.375Z,3.97
2023-03-24T02:14:47.858Z,2.67
2023-03-24T02:17:14.301Z,3.22
2023-03-24T02:19:40.719Z,2.87
2023-03-24T02:22:07.602Z,4.35
2023-03-24T02:24:34.011Z,5.62
2023-03-24T02:27:00.465Z,3.58
2023-03-24T02:29:28.031Z,5.10
2023-03-24T02:31:54.518Z,4.87
2023-03-24T02:34:20.999Z,3.37
2023-03-24T02:36:48.624Z,4.40
2023-03-24T02:39:15.051Z,3.35
2023-03-24T02:41:41.630Z,4.68
2023-03-24T02:44:08.159Z,4.10
2023-03-24T02:46:34.606Z,3.22
2023-03-24T02:49:01.244Z,6.03
2023-03-24T02:51:27.656Z,3.10
2023-03-24T02:53:54.216Z,5.70
2023-03-24T02:56:21.289Z,4.53
2023-03-24T02:58:47.741Z,3.67
2023-03-24T03:01:14.304Z,3.95
2023-03-24T03:03:41.785Z,3.75
2023-03-24T03:06:08.429Z,3.67
2023-03-24T03:08:34.856Z,4.30
2023-03-24T03:11:01.299Z,4.40
2023-03-24T03:13:28.135Z,3.85
2023-03-24T03:15:54.677Z,3.15
2023-03-24T03:18:21.363Z,3.92
2023-03-24T03:20:51.040Z,3.62
2023-03-24T03:23:17.521Z,3.72
2023-03-24T03:25:46.544Z,3.67
2023-03-24T03:28:13.180Z,3.45
2023-03-24T03:30:40.068Z,4.62
2023-03-24T03:33:06.548Z,3.10
2023-03-24T03:35:33.040Z,4.35
2023-03-24T03:38:00.630Z,3.17
2023-03-24T03:40:27.053Z,5.05
2023-03-24T03:42:53.473Z,3.65
2023-03-24T03:45:19.988Z,3.97
2023-03-24T03:47:46.992Z,3.53
2023-03-24T03:50:13.402Z,3.50
2023-03-24T03:52:39.847Z,3.42
2023-03-24T03:55:06.256Z,3.33
2023-03-24T03:57:32.718Z,3.70
2023-03-24T04:00:08.143Z,3.15
2023-03-24T04:02:35.002Z,3.92
2023-03-24T04:05:06.597Z,3.40
2023-03-24T04:07:33.852Z,9.60
2023-03-24T04:10:00.318Z,8.32
2023-03-24T04:12:26.739Z,5.40
2023-03-24T04:14:53.273Z,3.65
2023-03-24T04:17:19.718Z,3.45
2023-03-24T04:19:46.141Z,3.58
2023-03-24T04:22:13.268Z,5.68
2023-03-24T04:24:40.374Z,5.45
2023-03-24T04:27:07.281Z,4.25
2023-03-24T04:29:33.718Z,3.53
2023-03-24T04:32:02.548Z,4.60
2023-03-24T04:34:29.523Z,2.90
2023-03-24T04:36:55.966Z,3.90
2023-03-24T04:39:28.381Z,3.28
2023-03-24T04:41:54.863Z,3.97
2023-03-24T04:44:21.970Z,3.97
2023-03-24T04:46:48.434Z,5.70
2023-03-24T04:49:14.884Z,3.53
2023-03-24T04:51:41.376Z,3.70
2023-03-24T04:54:07.929Z,4.72
2023-03-24T04:56:34.462Z,3.40
2023-03-24T04:59:01.264Z,5.47
2023-03-24T05:01:30.499Z,3.25
2023-03-24T05:03:57.143Z,4.82
2023-03-24T05:06:23.641Z,3.90
2023-03-24T05:08:50.201Z,3.40
2023-03-24T05:11:17.931Z,3.87
2023-03-24T05:13:44.736Z,3.35
2023-03-24T05:16:11.461Z,3.62
2023-03-24T05:18:37.928Z,6.57
2023-03-24T05:21:04.356Z,3.12
2023-03-24T05:23:30.944Z,4.35
2023-03-24T05:25:57.417Z,5.43
2023-03-24T05:28:23.908Z,4.28
2023-03-24T05:30:50.525Z,5.45
2023-03-24T05:33:17.541Z,4.40
2023-03-24T05:35:44.167Z,5.10
2023-03-24T05:38:10.865Z,7.37
2023-03-24T05:40:37.313Z,5.68
2023-03-24T05:43:03.840Z,4.32
2023-03-24T05:45:30.628Z,4.95
2023-03-24T05:47:57.125Z,5.40
2023-03-24T05:50:24.558Z,5.90
2023-03-24T05:52:51.312Z,5.28
2023-03-24T05:55:19.484Z,5.15
2023-03-24T05:57:45.982Z,4.18
2023-03-24T06:00:17.106Z,5.72
2023-03-24T06:02:43.650Z,7.10
2023-03-24T06:05:10.198Z,7.60
2023-03-24T06:07:36.679Z,6.00
2023-03-24T06:10:03.318Z,4.60
2023-03-24T06:12:31.085Z,6.32
2023-03-24T06:14:57.508Z,5.22
2023-03-24T06:17:24.826Z,5.53
2023-03-24T06:19:51.317Z,5.25
2023-03-24T06:22:17.774Z,5.93
2023-03-24T06:24:44.336Z,5.70
2023-03-24T06:27:10.815Z,6.75
2023-03-24T06:29:37.245Z,7.53
2023-03-24T06:32:03.757Z,7.85
2023-03-24T06:34:30.209Z,5.87
2023-03-24T06:36:56.724Z,6.32
2023-03-24T06:39:24.153Z,6.28
2023-03-24T06:41:50.754Z,6.85
2023-03-24T06:44:17.212Z,5.62
2023-03-24T06:46:45.989Z,5.05
2023-03-24T06:49:12.575Z,5.68
2023-03-24T06:51:39.038Z,4.87
2023-03-24T06:54:05.483Z,8.85
2023-03-24T06:56:32.142Z,4.87
2023-03-24T06:58:58.710Z,5.90
2023-03-24T07:01:25.204Z,5.32
2023-03-24T07:03:51.703Z,5.05
2023-03-24T07:06:18.625Z,5.22
2023-03-24T07:08:45.085Z,5.28
2023-03-24T07:11:11.520Z,3.40
2023-03-24T07:13:38.377Z,5.35
2023-03-24T07:16:04.895Z,5.25
2023-03-24T07:18:31.322Z,5.82
2023-03-24T07:20:57.898Z,4.37
2023-03-24T07:23:25.683Z,4.37
2023-03-24T07:25:52.118Z,5.72
2023-03-24T07:28:18.643Z,6.15
2023-03-24T07:30:45.089Z,7.03
2023-03-24T07:33:12.793Z,3.37
2023-03-24T07:35:39.407Z,3.72
2023-03-24T07:38:05.868Z,7.47
2023-03-24T07:40:35.197Z,8.32
2023-03-24T07:43:01.705Z,5.60
2023-03-24T07:45:28.619Z,3.85
2023-03-24T07:47:57.379Z,3.20
2023-03-24T07:50:24.091Z,4.20
2023-03-24T07:52:50.654Z,3.80
2023-03-24T07:55:17.068Z,10.50
2023-03-24T07:57:43.581Z,6.57
2023-03-24T08:00:15.462Z,4.10
2023-03-24T08:02:42.096Z,6.85
2023-03-24T08:05:08.618Z,3.33
2023-03-24T08:07:35.208Z,2.78
2023-03-24T08:10:01.856Z,2.62
2023-03-24T08:12:28.285Z,3.05
2023-03-24T08:14:54.714Z,2.78
2023-03-24T08:17:21.299Z,3.55
2023-03-24T08:20:00.050Z,3.58
2023-03-24T08:22:27.488Z,2.50
2023-03-24T08:24:53.922Z,2.90
2023-03-24T08:27:20.731Z,4.37
2023-03-24T08:29:47.164Z,2.60
2023-03-24T08:32:14.046Z,4.35
2023-03-24T08:34:40.542Z,3.80
2023-03-24T08:37:07.342Z,3.05
2023-03-24T08:39:36.082Z,2.35
2023-03-24T08:42:02.626Z,2.25
2023-03-24T08:44:30.567Z,2.42
2023-03-24T08:46:58.151Z,2.90
2023-03-24T08:49:24.579Z,2.45
2023-03-24T08:51:51.019Z,3.33
2023-03-24T08:54:17.642Z,3.70
2023-03-24T08:56:44.101Z,2.67
2023-03-24T08:59:10.584Z,2.47
2023-03-24T09:01:37.163Z,2.80
2023-03-24T09:04:04.198Z,2.47
2023-03-24T09:06:31.236Z,2.62
2023-03-24T09:08:57.681Z,4.87
2023-03-24T09:11:24.705Z,3.03
2023-03-24T09:13:51.141Z,3.42
2023-03-24T09:16:18.144Z,2.78
2023-03-24T09:18:44.704Z,2.78
2023-03-24T09:21:11.290Z,3.85
2023-03-24T09:23:37.754Z,3.15
2023-03-24T09:26:04.224Z,3.55
2023-03-24T09:28:30.891Z,2.20
2023-03-24T09:30:57.389Z,2.70
2023-03-24T09:33:24.341Z,4.20
2023-03-24T09:35:50.840Z,4.28
2023-03-24T09:38:17.264Z,2.78
2023-03-24T09:40:43.847Z,3.58
2023-03-24T09:43:10.290Z,3.92
2023-03-24T09:45:36.805Z,2.85
2023-03-24T09:48:03.252Z,2.47
2023-03-24T09:50:29.675Z,2.12
2023-03-24T09:52:56.229Z,2.33
2023-03-24T09:55:22.670Z,1.87
2023-03-24T09:57:49.106Z,2.40
2023-03-24T10:00:15.582Z,2.55
2023-03-24T10:02:42.103Z,3.35
2023-03-24T10:05:08.640Z,3.85
2023-03-24T10:07:35.230Z,2.12
2023-03-24T10:10:01.678Z,2.80
2023-03-24T10:12:28.210Z,3.08
2023-03-24T10:14:54.623Z,2.37
2023-03-24T10:17:21.059Z,1.92
2023-03-24T10:19:47.461Z,2.03
2023-03-24T10:22:14.052Z,2.65
2023-03-24T10:24:40.521Z,2.20
2023-03-24T10:27:06.966Z,1.70
2023-03-24T10:29:33.448Z,2.83
2023-03-24T10:31:59.899Z,1.62
2023-03-24T10:34:26.399Z,1.42
2023-03-24T10:36:54.213Z,1.30
2023-03-24T10:39:24.290Z,1.27
2023-03-24T10:42:00.574Z,1.20
2023-03-24T10:44:27.328Z,1.30
2023-03-24T10:46:53.752Z,1.15
2023-03-24T10:49:20.244Z,1.33
2023-03-24T10:51:46.937Z,0.93
2023-03-24T10:54:13.430Z,1.75
2023-03-24T10:56:39.952Z,0.93
2023-03-24T10:59:06.743Z,1.17
2023-03-24T11:01:35.444Z,2.30
2023-03-24T11:04:03.756Z,1.80
2023-03-24T11:06:30.225Z,2.20
2023-03-24T11:08:56.922Z,1.75
2023-03-24T11:11:23.335Z,0.57
2023-03-24T11:13:49.747Z,1.83
2023-03-24T11:16:16.288Z,0.70
2023-03-24T11:18:42.774Z,0.93
2023-03-24T11:21:09.248Z,0.95
2023-03-24T11:23:35.651Z,0.95
2023-03-24T11:26:02.075Z,1.50
2023-03-24T11:28:28.497Z,1.90
2023-03-24T11:30:55.417Z,1.45
2023-03-24T11:33:35.782Z,0.85
2023-03-24T11:36:05.649Z,0.80
2023-03-24T11:38:32.561Z,2.37
2023-03-24T11:40:59.387Z,0.95
2023-03-24T11:43:27.345Z,1.42
2023-03-24T11:45:53.982Z,0.90
2023-03-24T11:48:20.681Z,1.08
2023-03-24T11:50:47.114Z,0.85
2023-03-24T11:53:13.558Z,0.93
2023-03-24T11:55:39.972Z,0.90
2023-03-24T11:58:06.554Z,1.10
2023-03-24T12:00:34.864Z,2.55
2023-03-24T12:03:01.551Z,1.40
2023-03-24T12:05:28.101Z,1.37
2023-03-24T12:07:54.623Z,0.82
2023-03-24T12:10:21.388Z,1.20
2023-03-24T12:12:47.813Z,0.88
2023-03-24T12:15:27.411Z,1.35
2023-03-24T12:17:55.606Z,0.70
2023-03-24T12:20:22.740Z,1.02
2023-03-24T12:22:49.224Z,0.98
2023-03-24T12:25:16.211Z,0.73
2023-03-24T12:27:42.644Z,0.93
2023-03-24T12:30:09.186Z,0.65
2023-03-24T12:32:35.692Z,1.27
2023-03-24T12:35:02.860Z,1.20
2023-03-24T12:37:29.268Z,0.98
2023-03-24T12:39:55.727Z,0.80
2023-03-24T12:42:22.170Z,1.48
2023-03-24T12:44:48.593Z,1.40
2023-03-24T12:47:15.040Z,0.80
2023-03-24T12:49:41.443Z,1.20
2023-03-24T12:52:07.983Z,0.88
2023-03-24T12:54:34.388Z,1.05
2023-03-24T12:57:01.041Z,0.60
2023-03-24T12:59:27.510Z,1.80
2023-03-24T13:01:53.961Z,1.17
2023-03-24T13:04:21.370Z,1.23
2023-03-24T13:06:47.800Z,0.93
2023-03-24T13:09:14.291Z,1.65
2023-03-24T13:11:40.703Z,0.80
2023-03-24T13:14:07.111Z,1.20
2023-03-24T13:16:33.605Z,2.08
2023-03-24T13:19:00.158Z,0.80
2023-03-24T13:21:28.030Z,1.08
2023-03-24T13:23:56.723Z,3.50
2023-03-24T13:26:24.418Z,1.95
2023-03-24T13:28:50.851Z,1.08
2023-03-24T13:31:17.473Z,0.80
2023-03-24T13:33:45.138Z,1.00
2023-03-24T13:36:11.612Z,1.10
2023-03-24T13:38:38.120Z,2.17
2023-03-24T13:41:04.598Z,1.00
2023-03-24T13:43:31.249Z,0.88
2023-03-24T13:45:57.696Z,1.20
2023-03-24T13:48:24.139Z,1.33
2023-03-24T13:50:51.666Z,1.02
2023-03-24T13:53:18.086Z,0.88
2023-03-24T13:55:44.543Z,1.12
2023-03-24T13:58:11.140Z,1.45
2023-03-24T14:00:37.566Z,1.05
2023-03-24T14:03:04.093Z,1.02
2023-03-24T14:05:30.654Z,1.02
2023-03-24T14:07:57.063Z,4.75
2023-03-24T14:10:23.472Z,2.70
2023-03-24T14:12:49.884Z,4.80
2023-03-24T14:15:16.349Z,2.87
2023-03-24T14:17:44.158Z,3.10
2023-03-24T14:20:11.731Z,2.67
2023-03-24T14:22:38.140Z,1.90
2023-03-24T14:25:04.652Z,2.80
2023-03-24T14:27:31.300Z,1.37
2023-03-24T14:29:57.751Z,1.87
2023-03-24T14:32:24.237Z,3.42
2023-03-24T14:34:50.675Z,2.08
2023-03-24T14:37:17.105Z,1.77
2023-03-24T14:39:43.539Z,2.22
2023-03-24T14:42:09.980Z,2.12
2023-03-24T14:44:36.421Z,2.00
2023-03-24T14:47:02.911Z,2.12
2023-03-24T14:49:29.407Z,1.27
2023-03-24T14:51:56.009Z,3.03
2023-03-24T14:54:22.472Z,2.60
2023-03-24T14:56:48.973Z,1.50
2023-03-24T14:59:16.174Z,2.55
2023-03-24T15:01:45.759Z,2.37
2023-03-24T15:04:13.955Z,1.62
2023-03-24T15:06:40.442Z,2.00
2023-03-24T15:09:07.163Z,4.65
2023-03-24T15:11:33.611Z,2.47
2023-03-24T15:14:00.105Z,3.87
2023-03-24T15:16:26.676Z,2.00
2023-03-24T15:19:01.476Z,2.22
2023-03-24T15:21:28.734Z,4.47
2023-03-24T15:23:55.760Z,3.28
2023-03-24T15:26:25.308Z,1.60
2023-03-24T15:28:51.804Z,3.53
2023-03-24T15:31:18.331Z,2.97
2023-03-24T15:33:44.872Z,2.67
2023-03-24T15:36:11.308Z,4.93
2023-03-24T15:38:37.728Z,5.97
2023-03-24T15:41:05.174Z,6.78
2023-03-24T15:43:31.660Z,4.90
2023-03-24T15:46:11.170Z,4.70
2023-03-24T15:48:39.039Z,4.80
2023-03-24T15:51:05.540Z,7.95
2023-03-24T15:53:32.574Z,3.62
2023-03-24T15:55:58.993Z,2.67
2023-03-24T15:58:25.694Z,2.62
2023-03-24T16:00:52.490Z,2.12
2023-03-24T16:03:19.135Z,3.12
2023-03-24T16:05:45.713Z,1.45
2023-03-24T16:08:12.378Z,1.77
2023-03-24T16:10:43.469Z,3.10
2023-03-24T16:13:09.897Z,4.12
2023-03-24T16:15:36.312Z,1.55
2023-03-24T16:18:04.027Z,2.80
2023-03-24T16:20:31.614Z,3.35
2023-03-24T16:22:58.076Z,6.25
2023-03-24T16:25:24.496Z,5.82
2023-03-24T16:27:51.173Z,2.78
2023-03-24T16:30:17.597Z,2.78
2023-03-24T16:32:44.044Z,19.25
2023-03-24T16:35:10.532Z,15.35
2023-03-24T16:37:37.034Z,9.18
2023-03-24T16:40:05.401Z,2.87
2023-03-24T16:42:31.848Z,3.33
2023-03-24T16:44:58.270Z,1.98
2023-03-24T16:47:24.697Z,1.90
2023-03-24T16:49:51.252Z,2.62
2023-03-24T16:52:18.371Z,2.37
2023-03-24T16:54:46.528Z,2.55
2023-03-24T16:57:13.017Z,4.47
2023-03-24T16:59:39.516Z,3.05
2023-03-24T17:02:06.097Z,2.70
2023-03-24T17:04:34.250Z,2.45
2023-03-24T17:07:00.781Z,2.45
2023-03-24T17:09:28.759Z,1.83
2023-03-24T17:11:55.238Z,2.22
2023-03-24T17:14:21.671Z,3.70
2023-03-24T17:16:49.411Z,2.15
2023-03-24T17:19:16.651Z,5.78
2023-03-24T17:21:45.064Z,1.83
2023-03-24T17:24:13.270Z,3.47
2023-03-24T17:26:39.730Z,3.20
2023-03-24T17:29:06.267Z,2.72
2023-03-24T17:31:32.766Z,1.67
2023-03-24T17:34:03.769Z,3.35
2023-03-24T17:36:35.250Z,1.77
2023-03-24T17:39:01.668Z,2.45
2023-03-24T17:41:28.212Z,1.92
2023-03-24T17:43:54.662Z,2.62
2023-03-24T17:46:21.279Z,1.20
2023-03-24T17:48:49.279Z,1.52
2023-03-24T17:51:16.912Z,2.70
2023-03-24T17:53:45.225Z,3.05
2023-03-24T17:56:11.727Z,2.85
2023-03-24T17:58:38.197Z,2.28
2023-03-24T18:01:08.298Z,2.20
2023-03-24T18:03:36.243Z,1.75
2023-03-24T18:06:02.779Z,2.53
2023-03-24T18:08:29.646Z,1.52
2023-03-24T18:10:56.069Z,1.80
2023-03-24T18:13:22.791Z,1.67
2023-03-24T18:15:49.995Z,1.50
2023-03-24T18:18:16.429Z,1.80
2023-03-24T18:20:42.847Z,2.92
2023-03-24T18:23:10.396Z,2.35
2023-03-24T18:25:36.873Z,1.73
2023-03-24T18:28:03.321Z,2.55
2023-03-24T18:30:31.031Z,2.50
2023-03-24T18:33:01.582Z,2.03
2023-03-24T18:35:31.037Z,2.90
2023-03-24T18:37:57.600Z,3.83
2023-03-24T18:40:24.076Z,1.98
2023-03-24T18:42:50.510Z,2.62
2023-03-24T18:45:20.087Z,2.60
2023-03-24T18:47:46.755Z,3.80
2023-03-24T18:50:13.180Z,1.92
2023-03-24T18:52:40.149Z,1.95
2023-03-24T18:55:06.570Z,2.80
2023-03-24T18:57:33.762Z,1.65
2023-03-24T19:00:01.080Z,4.72
2023-03-24T19:02:27.773Z,4.07
2023-03-24T19:04:54.257Z,2.15
2023-03-24T19:07:26.452Z,2.97
2023-03-24T19:09:53.478Z,2.22
2023-03-24T19:12:19.911Z,2.08
2023-03-24T19:14:46.535Z,1.83
2023-03-24T19:17:13.022Z,1.87
2023-03-24T19:19:39.487Z,3.72
2023-03-24T19:22:07.527Z,2.95
2023-03-24T19:24:33.969Z,1.70
2023-03-24T19:27:00.580Z,3.10
2023-03-24T19:29:26.985Z,2.47
2023-03-24T19:31:56.813Z,3.40
2023-03-24T19:34:23.226Z,2.17
2023-03-24T19:36:50.440Z,2.42
2023-03-24T19:39:17.584Z,1.83
2023-03-24T19:41:43.975Z,2.92
2023-03-24T19:44:10.498Z,2.35
2023-03-24T19:46:36.974Z,2.83
2023-03-24T19:49:03.573Z,1.83
2023-03-24T19:51:30.035Z,3.90
2023-03-24T19:53:56.594Z,3.35
2023-03-24T19:56:23.200Z,3.50
2023-03-24T19:58:49.715Z,2.62
2023-03-24T20:01:16.147Z,4.03
2023-03-24T20:03:42.752Z,3.83
2023-03-24T20:06:09.617Z,2.60
2023-03-24T20:08:36.327Z,3.62
2023-03-24T20:11:03.803Z,2.08
2023-03-24T20:13:30.317Z,5.22
2023-03-24T20:15:56.851Z,4.22
2023-03-24T20:18:23.345Z,2.45
2023-03-24T20:20:49.908Z,2.92
2023-03-24T20:23:17.153Z,5.78
2023-03-24T20:25:44.385Z,2.05
2023-03-24T20:28:10.997Z,2.97
2023-03-24T20:30:37.422Z,3.30
2023-03-24T20:33:03.871Z,2.85
2023-03-24T20:35:30.496Z,3.33
2023-03-24T20:37:56.945Z,2.05
2023-03-24T20:40:24.901Z,2.92
2023-03-24T20:42:51.364Z,1.77
2023-03-24T20:45:17.828Z,2.83
2023-03-24T20:47:44.339Z,3.17
2023-03-24T20:50:10.958Z,3.67
2023-03-24T20:52:37.484Z,1.80
2023-03-24T20:55:06.565Z,2.28
2023-03-24T20:57:33.115Z,4.12
2023-03-24T20:59:59.583Z,4.55
2023-03-24T21:02:26.380Z,3.10
2023-03-24T21:04:52.852Z,2.42
2023-03-24T21:07:19.334Z,4.35
2023-03-24T21:09:45.774Z,3.25
2023-03-24T21:12:12.269Z,2.30
2023-03-24T21:14:38.769Z,3.33
2023-03-24T21:17:06.076Z,3.45
2023-03-24T21:19:32.502Z,1.83
2023-03-24T21:21:59.537Z,4.20
2023-03-24T21:24:26.122Z,2.03
2023-03-24T21:26:55.653Z,3.80
2023-03-24T21:29:22.746Z,3.90
2023-03-24T21:31:50.018Z,2.37
2023-03-24T21:34:16.620Z,4.03
2023-03-24T21:36:43.067Z,2.50
2023-03-24T21:39:10.467Z,2.55
2023-03-24T21:41:39.045Z,2.95
2023-03-24T21:44:05.510Z,2.50
2023-03-24T21:46:32.304Z,3.85
2023-03-24T21:49:00.273Z,3.37
2023-03-24T21:51:26.864Z,5.15
2023-03-24T21:53:55.825Z,3.67
2023-03-24T21:56:22.325Z,3.50
2023-03-24T21:58:48.727Z,4.03
2023-03-24T22:01:15.520Z,1.98
2023-03-24T22:03:42.067Z,3.15
2023-03-24T22:06:11.543Z,3.62
2023-03-24T22:08:39.163Z,5.37
2023-03-24T22:11:05.614Z,2.37
2023-03-24T22:13:32.078Z,2.25
2023-03-24T22:15:58.489Z,4.35
2023-03-24T22:18:25.022Z,3.90
2023-03-24T22:20:51.424Z,5.03
2023-03-24T22:23:17.842Z,2.75
2023-03-24T22:25:44.277Z,2.50
2023-03-24T22:28:10.757Z,2.22
2023-03-24T22:30:37.187Z,4.93
2023-03-24T22:33:03.725Z,5.80
2023-03-24T22:35:30.181Z,1.73
2023-03-24T22:37:56.765Z,4.25
2023-03-24T22:40:23.235Z,3.58
2023-03-24T22:42:49.677Z,4.32
2023-03-24T22:45:16.194Z,3.65
2023-03-24T22:47:42.696Z,2.75
2023-03-24T22:50:09.764Z,4.22
2023-03-24T22:52:36.253Z,2.78
2023-03-24T22:55:02.811Z,5.85
2023-03-24T22:57:29.337Z,1.92
2023-03-24T22:59:57.042Z,2.42
2023-03-24T23:02:24.890Z,3.15
2023-03-24T23:04:51.521Z,3.47
2023-03-24T23:07:22.475Z,1.90
2023-03-24T23:09:48.931Z,2.75
2023-03-24T23:12:16.576Z,1.67
2023-03-24T23:14:46.737Z,2.53
2023-03-24T23:17:13.389Z,4.70
2023-03-24T23:19:39.822Z,3.28
2023-03-24T23:22:07.055Z,3.15
2023-03-24T23:24:33.924Z,3.03
2023-03-24T23:27:00.459Z,5.20
2023-03-24T23:29:26.908Z,4.40
2023-03-24T23:31:53.383Z,3.65
2023-03-24T23:34:19.866Z,3.37
2023-03-24T23:36:50.767Z,2.85
2023-03-24T23:39:17.522Z,4.40
2023-03-24T23:41:43.958Z,3.12
2023-03-24T23:44:10.612Z,3.60
2023-03-24T23:46:37.229Z,3.25
2023-03-24T23:49:03.647Z,2.65
2023-03-24T23:51:30.058Z,2.97
2023-03-24T23:53:56.510Z,4.55
2023-03-24T23:56:23.033Z,3.80
2023-03-24T23:58:49.500Z,4.07
